Weather History for Drummond Island, MI

Change the Weather History Date:

Wednesday, January 16, 2013

  Actual Average (KCIU) Record (KCIU)
Temperature  
Mean Temperature 24 °F -  
Max Temperature 30 °F 23 °F 38 °F (1983)
Min Temperature 17 °F 3 °F -22 °F (2004)
Degree Days  
Heating Degree Days 42    
Moisture  
Dew Point 21 °F    
Average Humidity 79    
Maximum Humidity 94    
Minimum Humidity 67    
Precipitation  
Precipitation 0.00 in - - ()
Sea Level Pressure  
Sea Level Pressure 29.72 in    
Wind  
Wind Speed 13 mph (WSW)    
Max Wind Speed 20 mph    
Max Gust Speed 32 mph    
Visibility 9 miles    
Events Snow    
Averages and records for this station are not official NWS values.
T = Trace of Precipitation, MM = Missing Value Source: NWS Daily Summary

Daily Weather History Graph

Daily Weather History Graph

Search for Another Location

Airport:

Trip Planner

Search our weather history database for the weather conditions in past years. The results will help you decide how hot, cold, wet, or windy it might be!

Date:

Astronomy

Jan. 16, 2013 Rise Set
Actual Time 8:12 AM EST 5:18 PM EST
Civil Twilight 7:38 AM EST 5:51 PM EST
Nautical Twilight 7:01 AM EST 6:28 PM EST
Astronomical Twilight 6:26 AM EST 7:04 PM EST
Moon 10:27 AM EST (1/16) 11:31 PM EST (1/16)
Length of Visible Light 10h 12m
Length of Day
9h 05m
Waxing Crescent, 28% of the Moon is Illuminated
Jan 16
Waxing Crescent
Jan 18
First Quarter
Jan 26
Full
Feb 3
Last Quarter
Feb 10
New

Hourly Weather History & Observations

Time (EST) Temp. Windchill Dew Point Humidity Pressure Visibility Wind Dir Wind Speed Gust Speed Precip Events Conditions
12:15 AM 27.9 °F 17.8 °F 21.9 °F 78% 29.99 in 10.0 mi SW 11.5 mph 18.4 mph N/A Snow Light Snow
12:35 AM 27.9 °F 17.8 °F 21.9 °F 78% 29.98 in 10.0 mi SW 11.5 mph 19.6 mph N/A Snow Light Snow
1:15 AM 27.9 °F 18.4 °F 22.1 °F 79% 29.96 in 7.0 mi SSW 10.4 mph 18.4 mph N/A Snow Light Snow
1:35 AM 27.5 °F 15.9 °F 21.9 °F 80% 29.95 in 10.0 mi SSW 15.0 mph 18.4 mph N/A Snow Light Snow
1:56 AM 27.5 °F 19.3 °F 22.1 °F 80% 29.94 in 10.0 mi SW 8.1 mph - N/A   Overcast
2:15 AM 27.9 °F 18.4 °F 22.3 °F 80% 29.93 in 10.0 mi SW 10.4 mph 17.3 mph N/A   Overcast
2:36 AM 28.0 °F 19.3 °F 22.6 °F 80% 29.93 in 10.0 mi SSW 9.2 mph - N/A   Overcast
2:56 AM 27.9 °F 17.8 °F 22.5 °F 80% 29.92 in 10.0 mi SSW 11.5 mph 17.3 mph N/A   Overcast
3:15 AM 27.9 °F 17.8 °F 23.0 °F 82% 29.90 in 10.0 mi SSW 11.5 mph - N/A   Overcast
3:36 AM 27.7 °F 16.6 °F 22.6 °F 81% 29.89 in 10.0 mi SSW 13.8 mph 21.9 mph N/A   Overcast
3:55 AM 27.7 °F 17.1 °F 22.6 °F 81% 29.88 in 10.0 mi SSW 12.7 mph 16.1 mph N/A   Overcast
4:16 AM 27.5 °F 15.9 °F 22.5 °F 81% 29.86 in 10.0 mi SSW 15.0 mph 23.0 mph N/A   Mostly Cloudy
4:36 AM 27.7 °F 17.6 °F 22.5 °F 81% 29.84 in 10.0 mi SW 11.5 mph 20.7 mph N/A   Mostly Cloudy
4:55 AM 27.9 °F 17.3 °F 22.1 °F 79% 29.83 in 10.0 mi SSW 12.7 mph 21.9 mph N/A   Mostly Cloudy
5:16 AM 27.5 °F 14.2 °F 21.9 °F 80% 29.81 in 10.0 mi SSW 19.6 mph 25.3 mph N/A   Scattered Clouds
5:35 AM 27.5 °F 15.9 °F 21.7 °F 79% 29.80 in 10.0 mi SSW 15.0 mph 26.5 mph N/A   Clear
5:56 AM 27.0 °F 13.9 °F 21.6 °F 80% 29.78 in 10.0 mi SSW 18.4 mph 21.9 mph N/A   Clear
6:15 AM 27.0 °F 15.2 °F 21.7 °F 81% 29.77 in 10.0 mi SSW 15.0 mph 21.9 mph N/A   Clear
6:35 AM 27.5 °F 15.0 °F 21.7 °F 79% 29.77 in 10.0 mi SSW 17.3 mph 21.9 mph N/A   Clear
7:35 AM 27.1 °F 15.4 °F 20.8 °F 77% 29.74 in 10.0 mi SSW 15.0 mph 25.3 mph N/A   Clear
7:56 AM 27.5 °F 15.9 °F 20.8 °F 76% 29.73 in 10.0 mi SSW 15.0 mph 28.8 mph N/A   Clear
8:15 AM 27.5 °F 16.8 °F 21.0 °F 77% 29.72 in 10.0 mi SSW 12.7 mph 24.2 mph N/A   Clear
8:35 AM 27.7 °F 15.6 °F 20.8 °F 75% 29.71 in 10.0 mi SSW 16.1 mph 26.5 mph N/A   Clear
8:56 AM 27.7 °F 15.2 °F 21.0 °F 76% 29.70 in 10.0 mi SSW 17.3 mph 25.3 mph N/A   Clear
9:15 AM 27.5 °F 14.6 °F 20.8 °F 76% 29.69 in 10.0 mi SSW 18.4 mph 29.9 mph N/A   Clear
9:36 AM 27.7 °F 16.1 °F 20.8 °F 75% 29.68 in 10.0 mi SW 15.0 mph 26.5 mph N/A   Mostly Cloudy
9:56 AM 27.9 °F 15.5 °F 20.3 °F 73% 29.67 in 10.0 mi SW 17.3 mph 28.8 mph N/A   Overcast
10:15 AM 28.0 °F 15.3 °F 20.3 °F 73% 29.65 in 10.0 mi SSW 18.4 mph 26.5 mph N/A   Overcast
10:36 AM 28.0 °F 15.3 °F 20.3 °F 73% 29.63 in 10.0 mi SSW 18.4 mph 31.1 mph N/A   Mostly Cloudy
10:55 AM 28.4 °F 15.8 °F 20.5 °F 72% 29.62 in 10.0 mi SSW 18.4 mph 26.5 mph N/A   Mostly Cloudy
11:15 AM 28.8 °F 16.6 °F 20.7 °F 72% 29.60 in 10.0 mi SSW 17.3 mph 32.2 mph N/A   Overcast
11:36 AM 30.0 °F 17.5 °F 21.2 °F 70% 29.59 in 10.0 mi SSW 19.6 mph 32.2 mph N/A   Overcast
11:55 AM 30.0 °F 18.3 °F 21.2 °F 70% 29.57 in 10.0 mi SSW 17.3 mph 25.3 mph N/A   Overcast
12:15 PM 30.0 °F 19.5 °F 21.9 °F 72% 29.56 in 10.0 mi SSW 13.8 mph 27.6 mph N/A   Overcast
12:36 PM 30.7 °F 18.5 °F 23.0 °F 73% 29.55 in 10.0 mi SW 19.6 mph 31.1 mph N/A   Overcast
12:55 PM 30.2 °F 18.5 °F 24.1 °F 78% 29.54 in 5.0 mi SW 17.3 mph 31.1 mph N/A Snow Light Snow
1:15 PM 29.1 °F 17.9 °F 26.2 °F 89% 29.53 in 1.0 mi SW 15.0 mph 26.5 mph N/A Snow Light Snow
1:36 PM 28.9 °F 19.2 °F 27.1 °F 93% 29.53 in 0.8 mi SW 11.5 mph 21.9 mph N/A Snow Light Snow
1:55 PM 29.8 °F 21.5 °F 28.4 °F 94% 29.53 in 1.5 mi WSW 9.2 mph 24.2 mph N/A Snow Light Snow
2:16 PM 30.0 °F 20.0 °F 25.3 °F 83% 29.53 in 10.0 mi WSW 12.7 mph 23.0 mph N/A   Overcast
2:36 PM 30.0 °F 20.5 °F 24.8 °F 81% 29.54 in 10.0 mi West 11.5 mph 25.3 mph N/A   Overcast
2:55 PM 29.7 °F 20.7 °F 24.8 °F 82% 29.55 in 10.0 mi West 10.4 mph 25.3 mph N/A   Overcast
3:16 PM 29.3 °F 19.1 °F 25.3 °F 85% 29.56 in 10.0 mi West 12.7 mph 21.9 mph N/A   Overcast
3:35 PM 29.1 °F 22.1 °F 25.7 °F 87% 29.56 in 10.0 mi WSW 6.9 mph 17.3 mph N/A   Overcast
3:55 PM 29.3 °F 20.2 °F 25.5 °F 86% 29.56 in 10.0 mi West 10.4 mph 16.1 mph N/A   Overcast
4:16 PM 29.3 °F 21.5 °F 25.3 °F 85% 29.57 in 10.0 mi West 8.1 mph 16.1 mph N/A   Overcast
4:35 PM 29.5 °F 22.5 °F 25.5 °F 85% 29.58 in 10.0 mi West 6.9 mph - N/A   Overcast
4:55 PM 29.7 °F 21.3 °F 25.3 °F 84% 29.59 in 10.0 mi West 9.2 mph 18.4 mph N/A   Overcast
5:16 PM 29.8 °F 22.2 °F 25.3 °F 83% 29.61 in 10.0 mi West 8.1 mph - N/A   Overcast
5:35 PM 29.8 °F 23.0 °F 25.2 °F 83% 29.62 in 10.0 mi West 6.9 mph - N/A   Overcast
5:55 PM 30.0 °F 24.1 °F 25.2 °F 82% 29.63 in 10.0 mi West 5.8 mph - N/A   Overcast
6:15 PM 29.8 °F 22.2 °F 24.8 °F 81% 29.65 in 10.0 mi West 8.1 mph - N/A   Overcast
6:56 PM 29.3 °F 20.8 °F 24.1 °F 81% 29.68 in 10.0 mi West 9.2 mph 19.6 mph N/A   Overcast
7:15 PM 29.1 °F 20.0 °F 23.4 °F 79% 29.69 in 10.0 mi West 10.4 mph 24.2 mph N/A   Overcast
7:35 PM 28.4 °F 18.0 °F 22.1 °F 77% 29.70 in 10.0 mi NW 12.7 mph 25.3 mph N/A   Overcast
7:56 PM 25.5 °F 13.8 °F 21.2 °F 84% 29.72 in 7.0 mi NW 13.8 mph 24.2 mph N/A Snow Light Snow
8:15 PM 25.0 °F 14.2 °F 18.0 °F 75% 29.73 in 10.0 mi NW 11.5 mph 21.9 mph N/A   Mostly Cloudy
8:36 PM 24.8 °F 14.0 °F 18.0 °F 75% 29.74 in 10.0 mi NW 11.5 mph 24.2 mph N/A   Overcast
8:55 PM 23.9 °F 14.2 °F 18.3 °F 79% 29.75 in 10.0 mi NNW 9.2 mph 20.7 mph N/A   Overcast
9:15 PM 23.0 °F 13.9 °F 17.1 °F 78% 29.77 in 10.0 mi NW 8.1 mph 20.7 mph N/A   Overcast
9:55 PM 21.6 °F 10.6 °F 12.0 °F 67% 29.79 in 10.0 mi NW 10.4 mph 18.4 mph N/A   Scattered Clouds
10:15 PM 20.8 °F 7.3 °F 12.0 °F 69% 29.81 in 7.0 mi NW 15.0 mph 32.2 mph N/A   Clear
10:35 PM 20.3 °F 9.0 °F 14.0 °F 77% 29.83 in 10.0 mi NW 10.4 mph 23.0 mph N/A Snow Light Snow
10:55 PM 19.0 °F 6.1 °F 12.6 °F 76% 29.86 in 7.0 mi NNW 12.7 mph 18.4 mph N/A Snow Light Snow
11:16 PM 18.3 °F 8.2 °F 12.0 °F 76% 29.88 in 10.0 mi NNW 8.1 mph 16.1 mph N/A   Overcast
11:35 PM 17.4 °F 5.4 °F 8.6 °F 68% 29.89 in 10.0 mi NNW 10.4 mph 21.9 mph N/A   Overcast
11:55 PM 17.1 °F 7.6 °F 8.6 °F 69% 29.91 in 10.0 mi NNW 6.9 mph - N/A   Overcast